Time;durP1;ratioP1;P1;durP2;ratioP2;P2;SDS_P1;SDS_P2;PMS_P1;PMS_P2;Temp;Humidity;BMP_temperature;BMP_pressure;BME280_temperature;BME280_humidity;BME280_pressure;Samples;Min_cycle;Max_cycle;Signal;HPM_P1;HPM_P2
2022/05/07 00:01:10;;;;;;;;;;;;;;;12.99;71.67;93126.13;2058844;69;20513;-71
2022/05/07 00:03:35;;;;;;;;;;;;;;;13.27;69.90;93117.84;2058686;69;20054;-75
2022/05/07 00:06:01;;;;;;;;;;;;;;;13.42;69.61;93126.53;2071772;69;20046;-71
2022/05/07 00:08:26;;;;;;;;;;;;;;;13.45;69.42;93124.53;2058885;69;20046;-70
2022/05/07 00:10:52;;;;;;;;;;;;;;;13.48;68.55;93115.56;2071666;69;20062;-72
2022/05/07 00:13:17;;;;;;;;;;;;;;;13.51;66.32;93115.66;2058650;69;20046;-73
2022/05/07 00:18:01;;;;;;;;;;;;;;;13.40;69.60;93117.91;2058572;69;20080;-71
2022/05/07 00:18:30;;;;;;;;;;;;;;;13.51;67.99;93113.56;2058479;69;20057;-72
2022/05/07 00:20:55;;;;;;;;;;;;;;;13.36;69.71;93111.31;2071809;69;20057;-71
2022/05/07 00:23:20;;;;;;;;;;;;;;;13.11;70.97;93114.81;2058922;69;20486;-74
2022/05/07 00:25:46;;;;;;;;;;;;;;;13.15;70.23;93107.28;2058773;69;20145;-73
2022/05/07 00:28:11;;;;;;;;;;;;;;;13.11;71.31;93100.66;2058720;69;20054;-71
2022/05/07 00:30:37;;;;;;;;;;;;;;;12.97;72.96;93106.22;2058867;69;20054;-68
2022/05/07 00:33:02;;;;;;;;;;;;;;;13.20;71.28;93113.91;2058660;69;20111;-71
2022/05/07 00:35:28;;;;;;;;;;;;;;;13.28;70.54;93105.19;2071893;69;20474;-70
2022/05/07 00:41:22;;;;;;;;;;;;;;;13.13;70.38;93097.94;2058790;69;20111;-70
2022/05/07 00:43:47;;;;;;;;;;;;;;;13.05;71.63;93098.22;2071744;69;20054;-73
2022/05/07 00:46:13;;;;;;;;;;;;;;;13.00;70.51;93096.50;2058696;69;20085;-71
2022/05/07 00:48:39;;;;;;;;;;;;;;;13.04;71.89;93088.25;2058704;69;20111;-69
2022/05/07 00:53:50;;;;;;;;;;;;;;;13.06;69.18;93090.50;2071804;69;20122;-69
2022/05/07 00:56:16;;;;;;;;;;;;;;;13.07;71.08;93091.94;2058630;69;20050;-70
2022/05/07 00:58:42;;;;;;;;;;;;;;;12.98;70.53;93096.41;2071441;69;20046;-70
2022/05/07 01:01:08;;;;;;;;;;;;;;;13.12;70.99;93091.56;2071453;69;20064;-71
2022/05/07 01:03:34;;;;;;;;;;;;;;;13.14;71.77;93088.09;2071472;69;20054;-71
2022/05/07 01:06:00;;;;;;;;;;;;;;;13.16;70.68;93079.75;2071668;69;20148;-75
2022/05/07 01:08:26;;;;;;;;;;;;;;;13.10;71.00;93088.63;2071635;69;20528;-73
2022/05/07 01:10:52;;;;;;;;;;;;;;;13.23;69.55;93085.16;2071545;69;20076;-69
2022/05/07 01:16:48;;;;;;;;;;;;;;;13.18;70.41;93088.34;2058622;69;20539;-69
2022/05/07 01:19:14;;;;;;;;;;;;;;;13.13;68.68;93081.72;2071607;69;20545;-70
2022/05/07 01:21:41;;;;;;;;;;;;;;;12.61;72.14;93077.31;2071266;69;20058;-71
2022/05/07 01:24:07;;;;;;;;;;;;;;;12.87;69.42;93072.44;2058510;69;20046;-70
2022/05/07 01:26:36;;;;;;;;;;;;;;;12.53;72.97;93074.00;2071568;69;20054;-69
2022/05/07 01:29:03;;;;;;;;;;;;;;;12.21;75.25;93073.50;2058930;69;20119;-71
2022/05/07 01:31:32;;;;;;;;;;;;;;;11.78;78.64;93077.88;2072003;69;20057;-75
2022/05/07 01:33:57;;;;;;;;;;;;;;;12.32;75.02;93072.03;2069116;69;20077;-70
2022/05/07 01:36:24;;;;;;;;;;;;;;;12.47;75.55;93073.63;2071754;69;20078;-72
2022/05/07 01:38:57;;;;;;;;;;;;;;;12.73;73.23;93072.34;2072274;69;20042;-71
2022/05/07 01:41:23;;;;;;;;;;;;;;;12.80;72.69;93069.91;2072134;69;20046;-71
2022/05/07 01:43:50;;;;;;;;;;;;;;;12.82;72.82;93072.84;2072095;69;20054;-70
2022/05/07 01:49:04;;;;;;;;;;;;;;;12.92;70.77;93067.75;2071737;69;20220;-71
2022/05/07 01:51:30;;;;;;;;;;;;;;;12.97;71.55;93066.66;2071908;69;20164;-71
2022/05/07 01:53:56;;;;;;;;;;;;;;;12.94;71.53;93065.81;2072072;69;20710;-75
2022/05/07 01:56:22;;;;;;;;;;;;;;;12.94;71.30;93070.72;2072155;69;20050;-73
2022/05/07 01:58:49;;;;;;;;;;;;;;;12.87;71.75;93069.63;2071933;69;20050;-73
2022/05/07 02:01:15;;;;;;;;;;;;;;;12.91;71.31;93072.69;2072204;69;20066;-72
2022/05/07 02:03:41;;;;;;;;;;;;;;;12.75;72.18;93068.94;2071999;69;20156;-74
2022/05/07 02:06:07;;;;;;;;;;;;;;;12.59;72.14;93071.53;2072054;69;20070;-71
2022/05/07 02:08:33;;;;;;;;;;;;;;;12.66;72.80;93070.53;2072002;69;20053;-70
2022/05/07 02:11:02;;;;;;;;;;;;;;;12.76;72.25;93076.03;2071946;69;20510;-70
2022/05/07 02:13:30;;;;;;;;;;;;;;;12.83;71.67;93071.47;2071905;69;20137;-71
2022/05/07 02:15:56;;;;;;;;;;;;;;;12.80;72.80;93064.97;2071863;69;20131;-70
2022/05/07 02:18:21;;;;;;;;;;;;;;;12.92;71.31;93067.75;2058906;69;20104;-72
2022/05/07 02:20:47;;;;;;;;;;;;;;;12.93;71.09;93064.34;2059230;69;20521;-72
2022/05/07 02:23:12;;;;;;;;;;;;;;;12.93;70.85;93066.44;2072130;69;20428;-71
2022/05/07 02:25:38;;;;;;;;;;;;;;;13.00;69.64;93064.69;2072153;69;20166;-72
2022/05/07 02:28:05;;;;;;;;;;;;;;;12.98;69.63;93062.47;2059344;69;20098;-73
2022/05/07 02:30:31;;;;;;;;;;;;;;;12.90;70.32;93064.84;2072130;69;20117;-72
2022/05/07 02:33:02;;;;;;;;;;;;;;;13.01;69.98;93068.97;2072172;69;20450;-74
2022/05/07 02:35:28;;;;;;;;;;;;;;;12.94;70.72;93060.16;2072166;69;20050;-75
2022/05/07 02:37:54;;;;;;;;;;;;;;;12.83;72.21;93065.81;2072241;69;20074;-71
2022/05/07 02:40:20;;;;;;;;;;;;;;;12.89;70.97;93066.19;2072239;69;20050;-72
2022/05/07 02:46:16;;;;;;;;;;;;;;;12.91;70.85;93061.38;2059314;69;20106;-72
2022/05/07 02:48:45;;;;;;;;;;;;;;;12.83;71.25;93065.81;2072140;69;20058;-75
2022/05/07 02:51:12;;;;;;;;;;;;;;;12.85;71.22;93066.69;2072495;69;20053;-72
2022/05/07 02:53:39;;;;;;;;;;;;;;;12.81;71.62;93060.81;2072386;69;20507;-71
2022/05/07 02:56:05;;;;;;;;;;;;;;;12.87;71.01;93055.50;2059322;69;20070;-71
2022/05/07 02:58:31;;;;;;;;;;;;;;;12.79;71.70;93049.41;2059038;69;20417;-71
2022/05/07 03:00:57;;;;;;;;;;;;;;;12.81;71.90;93049.50;2072531;69;20459;-69
2022/05/07 03:03:22;;;;;;;;;;;;;;;12.81;71.49;93048.75;2059332;69;20525;-71
2022/05/07 03:05:48;;;;;;;;;;;;;;;12.80;71.53;93053.69;2059383;69;20050;-71
2022/05/07 03:08:13;;;;;;;;;;;;;;;12.56;73.16;93050.19;2072479;69;20061;-70
2022/05/07 03:10:39;;;;;;;;;;;;;;;12.68;72.35;93055.78;2069200;69;20042;-71
2022/05/07 03:13:05;;;;;;;;;;;;;;;12.76;71.74;93053.44;2059010;69;20058;-70
2022/05/07 03:15:31;;;;;;;;;;;;;;;12.68;72.24;93053.69;2072258;69;20114;-75
2022/05/07 03:17:56;;;;;;;;;;;;;;;12.66;73.02;93053.59;2072045;69;20054;-71
2022/05/07 03:20:22;;;;;;;;;;;;;;;12.72;71.48;93051.13;2072230;69;20530;-75
2022/05/07 03:26:17;;;;;;;;;;;;;;;12.80;71.00;93050.13;2056910;69;20123;-71
2022/05/07 03:28:43;;;;;;;;;;;;;;;12.79;71.24;93052.22;2068951;69;20050;-71
2022/05/07 03:31:11;;;;;;;;;;;;;;;12.77;72.01;93057.72;2058872;69;20049;-75
2022/05/07 03:33:39;;;;;;;;;;;;;;;12.77;71.47;93057.72;2058781;69;20050;-75
2022/05/07 03:36:05;;;;;;;;;;;;;;;12.72;72.22;93053.22;2058701;69;20138;-74
2022/05/07 03:38:30;;;;;;;;;;;;;;;12.68;72.00;93045.22;2071830;69;20118;-72
2022/05/07 03:41:03;;;;;;;;;;;;;;;12.62;72.10;93050.53;2071879;69;20479;-72
2022/05/07 03:43:33;;;;;;;;;;;;;;;12.70;71.61;93050.28;2071873;69;20057;-73
2022/05/07 03:45:59;;;;;;;;;;;;;;;12.78;70.56;93056.38;2058785;69;20062;-70
2022/05/07 03:48:28;;;;;;;;;;;;;;;12.71;72.14;93051.75;2071788;69;20146;-70
2022/05/07 03:50:55;;;;;;;;;;;;;;;12.68;72.02;93050.88;2058806;69;20126;-70
2022/05/07 03:53:30;;;;;;;;;;;;;;;12.76;71.34;93061.19;2071842;69;20145;-71
2022/05/07 03:56:05;;;;;;;;;;;;;;;12.71;71.87;93049.66;2071829;69;20046;-70
2022/05/07 04:02:01;;;;;;;;;;;;;;;12.63;72.41;93060.47;2058453;69;20053;-74
2022/05/07 04:04:39;;;;;;;;;;;;;;;12.55;73.60;93059.25;2071638;69;20072;-71
2022/05/07 04:07:09;;;;;;;;;;;;;;;12.59;72.59;93057.41;2071760;69;20141;-75
2022/05/07 04:09:36;;;;;;;;;;;;;;;12.67;72.70;93062.81;2071935;69;20176;-70
2022/05/07 04:12:02;;;;;;;;;;;;;;;12.68;72.69;93062.16;2071809;69;20053;-71
2022/05/07 04:14:28;;;;;;;;;;;;;;;12.56;73.50;93060.75;2071820;69;20080;-70
2022/05/07 04:16:57;;;;;;;;;;;;;;;12.67;72.04;93060.72;2071847;69;20103;-71
2022/05/07 04:19:23;;;;;;;;;;;;;;;12.71;71.93;93063.78;2071705;69;20050;-71
2022/05/07 04:21:53;;;;;;;;;;;;;;;12.73;71.98;93058.22;2069033;69;20057;-74
2022/05/07 04:24:23;;;;;;;;;;;;;;;12.61;72.25;93063.19;2071798;69;20050;-74
2022/05/07 04:26:51;;;;;;;;;;;;;;;12.16;75.71;93063.34;2071565;69;20518;-71
2022/05/07 04:29:17;;;;;;;;;;;;;;;12.39;74.60;93056.94;2071996;69;20056;-71
2022/05/07 04:31:45;;;;;;;;;;;;;;;12.60;73.22;93066.59;2071959;69;20522;-73
2022/05/07 04:34:11;;;;;;;;;;;;;;;12.67;73.08;93051.50;2071874;69;20070;-74
2022/05/07 04:36:37;;;;;;;;;;;;;;;12.67;73.35;93046.59;2072093;69;20050;-73
2022/05/07 04:39:08;;;;;;;;;;;;;;;12.67;73.95;93052.22;2071934;69;20051;-74
2022/05/07 04:41:45;;;;;;;;;;;;;;;12.68;73.79;93058.63;2069436;69;20436;-73
2022/05/07 04:44:12;;;;;;;;;;;;;;;12.65;73.38;93057.78;2069162;69;20146;-72
2022/05/07 04:46:39;;;;;;;;;;;;;;;12.67;71.58;93057.16;2071897;69;20077;-75
2022/05/07 04:49:08;;;;;;;;;;;;;;;12.73;72.78;93061.06;2071882;69;20046;-71
2022/05/07 04:51:34;;;;;;;;;;;;;;;12.83;71.83;93063.75;2071635;69;20089;-71
2022/05/07 04:54:07;;;;;;;;;;;;;;;12.92;72.14;93065.69;2071900;69;20054;-71
2022/05/07 04:56:33;;;;;;;;;;;;;;;12.93;72.68;93067.16;2071865;69;20065;-71
2022/05/07 04:59:03;;;;;;;;;;;;;;;12.98;72.10;93071.69;2071634;69;20054;-70
2022/05/07 05:01:42;;;;;;;;;;;;;;;12.15;76.50;93067.50;2071816;69;20164;-71
2022/05/07 05:04:11;;;;;;;;;;;;;;;11.94;78.89;93070.44;2071709;69;20116;-71
2022/05/07 05:06:38;;;;;;;;;;;;;;;12.51;75.64;93070.28;2071874;69;20486;-72
2022/05/07 05:09:16;;;;;;;;;;;;;;;12.51;75.72;93073.13;2071984;69;20129;-70
2022/05/07 05:12:02;;;;;;;;;;;;;;;12.82;74.41;93059.44;2058826;69;20122;-71
2022/05/07 05:17:21;;;;;;;;;;;;;;;12.99;73.24;93072.44;2071782;69;20054;-71
2022/05/07 05:23:17;;;;;;;;;;;;;;;13.13;72.41;93069.69;2058822;69;20049;-73
2022/05/07 05:25:45;;;;;;;;;;;;;;;13.30;71.75;93080.59;2071773;69;20046;-70
2022/05/07 05:28:20;;;;;;;;;;;;;;;13.36;71.10;93074.53;2071856;69;20050;-71
2022/05/07 05:30:55;;;;;;;;;;;;;;;13.30;72.64;93079.84;2072000;69;20054;-70
2022/05/07 05:33:22;;;;;;;;;;;;;;;13.39;72.23;93084.63;2071472;69;20158;-71
2022/05/07 05:36:03;;;;;;;;;;;;;;;13.44;71.69;93086.31;2071765;69;20126;-70
2022/05/07 05:38:30;;;;;;;;;;;;;;;13.29;72.41;93087.59;2071807;69;20051;-71
2022/05/07 05:40:56;;;;;;;;;;;;;;;13.21;72.71;93076.53;2071922;69;20406;-71
2022/05/07 05:43:21;;;;;;;;;;;;;;;13.17;73.09;93087.59;2071761;69;20559;-71
2022/05/07 05:45:47;;;;;;;;;;;;;;;13.44;70.89;93084.22;2071801;69;20491;-70
2022/05/07 05:48:14;;;;;;;;;;;;;;;13.35;71.58;93084.38;2068912;69;20054;-71
2022/05/07 05:50:43;;;;;;;;;;;;;;;13.10;72.42;93088.63;2071668;69;20061;-72
2022/05/07 05:53:09;;;;;;;;;;;;;;;13.20;73.02;93096.97;2068744;69;20054;-75
2022/05/07 05:55:36;;;;;;;;;;;;;;;12.95;73.12;93091.97;2071654;69;20174;-76
2022/05/07 05:58:02;;;;;;;;;;;;;;;13.21;70.64;93092.75;2071699;69;20082;-74
2022/05/07 06:00:27;;;;;;;;;;;;;;;13.47;70.39;93090.72;2068935;69;20078;-74
2022/05/07 06:02:53;;;;;;;;;;;;;;;13.45;69.31;93096.25;2071686;69;20149;-74
2022/05/07 06:05:23;;;;;;;;;;;;;;;13.28;71.57;93094.59;2058740;69;20054;-76
2022/05/07 06:11:21;;;;;;;;;;;;;;;13.40;70.67;93097.41;2058714;69;20057;-72
2022/05/07 06:13:47;;;;;;;;;;;;;;;13.40;69.34;93097.41;2071870;69;20058;-74
2022/05/07 06:16:14;;;;;;;;;;;;;;;13.55;68.06;93093.25;2072125;69;20148;-72
2022/05/07 06:18:39;;;;;;;;;;;;;;;13.69;69.73;93091.22;2072148;69;20046;-72
2022/05/07 06:21:08;;;;;;;;;;;;;;;13.64;68.99;93095.19;2072292;69;20058;-70
2022/05/07 06:29:51;;;;;;;;;;;;;;;13.79;67.79;93085.38;2072004;69;20050;-76
2022/05/07 06:32:18;;;;;;;;;;;;;;;13.90;66.12;93088.16;2072156;69;20046;-74
2022/05/07 06:34:43;;;;;;;;;;;;;;;13.41;70.55;93085.44;2072057;69;20054;-73
2022/05/07 06:37:09;;;;;;;;;;;;;;;13.46;71.13;93094.91;2059406;69;20111;-74
2022/05/07 06:43:08;;;;;;;;;;;;;;;13.98;67.52;93085.78;2059216;69;20108;-73
2022/05/07 06:46:00;;;;;;;;;;;;;;;13.94;69.52;93082.00;2059480;69;20046;-76
2022/05/07 06:48:26;;;;;;;;;;;;;;;14.12;68.33;93088.63;2072191;69;20069;-71
2022/05/07 06:50:55;;;;;;;;;;;;;;;13.84;67.62;93084.28;2072170;69;20077;-74
2022/05/07 06:53:23;;;;;;;;;;;;;;;13.91;66.58;93088.88;2072170;69;20053;-75
2022/05/07 06:55:55;;;;;;;;;;;;;;;13.76;67.91;93090.22;2058992;69;20050;-71
2022/05/07 06:58:25;;;;;;;;;;;;;;;13.54;69.16;93089.69;2058876;69;20049;-70
2022/05/07 07:00:51;;;;;;;;;;;;;;;13.93;68.11;93095.41;2059030;69;20137;-70
2022/05/07 07:03:16;;;;;;;;;;;;;;;13.48;69.04;93097.84;2058861;69;20106;-70
2022/05/07 07:05:42;;;;;;;;;;;;;;;13.49;68.05;93099.31;2059043;69;20471;-70
2022/05/07 07:08:08;;;;;;;;;;;;;;;13.99;66.14;93086.50;2059047;69;20141;-70
2022/05/07 07:10:34;;;;;;;;;;;;;;;14.25;65.34;93095.69;2072114;69;20070;-70
2022/05/07 07:12:59;;;;;;;;;;;;;;;13.57;68.38;93094.13;2059082;69;20057;-70
2022/05/07 07:15:24;;;;;;;;;;;;;;;13.35;69.62;93092.88;2059136;69;20080;-71
2022/05/07 07:17:50;;;;;;;;;;;;;;;13.30;69.72;93094.72;2059002;69;20094;-74
2022/05/07 07:20:16;;;;;;;;;;;;;;;13.78;67.33;93093.13;2059050;69;20482;-71
2022/05/07 07:22:41;;;;;;;;;;;;;;;14.10;66.80;93087.78;2069299;69;20089;-69
2022/05/07 07:25:07;;;;;;;;;;;;;;;13.72;67.70;93090.00;2058910;69;20089;-74
2022/05/07 07:27:34;;;;;;;;;;;;;;;13.99;66.99;93089.34;2071979;69;20097;-71
2022/05/07 07:29:59;;;;;;;;;;;;;;;12.95;70.47;93091.97;2072112;69;20050;-71
2022/05/07 07:32:26;;;;;;;;;;;;;;;13.22;71.15;93088.59;2058968;69;20116;-71
2022/05/07 07:34:52;;;;;;;;;;;;;;;13.45;69.76;93091.34;2059029;69;20639;-71
2022/05/07 07:37:18;;;;;;;;;;;;;;;13.88;69.37;93087.31;2059135;69;20118;-70
2022/05/07 07:39:44;;;;;;;;;;;;;;;13.85;68.81;93091.41;2059061;69;20046;-70
2022/05/07 07:42:09;;;;;;;;;;;;;;;13.90;68.81;93085.34;2059160;69;20042;-71
2022/05/07 07:44:35;;;;;;;;;;;;;;;14.02;68.11;93088.09;2059193;69;20130;-70
2022/05/07 07:49:44;;;;;;;;;;;;;;;13.76;70.57;93086.66;2059124;69;20056;-70
2022/05/07 07:52:10;;;;;;;;;;;;;;;14.03;68.50;93083.91;2058971;69;20479;-70
2022/05/07 07:54:36;;;;;;;;;;;;;;;13.90;69.62;93088.16;2058912;69;20049;-70
2022/05/07 07:57:04;;;;;;;;;;;;;;;14.27;67.85;93087.31;2058992;69;20058;-70
2022/05/07 07:59:31;;;;;;;;;;;;;;;14.53;65.39;93087.25;2059113;69;20085;-70
2022/05/07 08:01:56;;;;;;;;;;;;;;;14.41;66.39;93081.66;2058994;69;20150;-73
2022/05/07 08:04:25;;;;;;;;;;;;;;;14.60;67.18;93086.19;2058928;69;20501;-71
2022/05/07 08:11:40;;;;;;;;;;;;;;;14.90;67.32;93084.94;2059099;69;20049;-72
2022/05/07 08:12:20;;;;;;;;;;;;;;;14.63;66.40;93084.94;2058939;69;20046;-72
2022/05/07 08:14:46;;;;;;;;;;;;;;;14.66;66.16;93083.66;2058911;69;20528;-74
2022/05/07 08:17:11;;;;;;;;;;;;;;;14.90;64.90;93084.94;2058972;69;20145;-70
2022/05/07 08:19:36;;;;;;;;;;;;;;;14.89;65.89;93082.72;2058891;69;20115;-71
2022/05/07 08:22:02;;;;;;;;;;;;;;;15.11;64.73;93083.13;2059023;69;20137;-71
2022/05/07 08:24:28;;;;;;;;;;;;;;;15.12;65.73;93081.75;2058937;69;20050;-70
2022/05/07 08:26:54;;;;;;;;;;;;;;;15.42;63.76;93080.41;2058877;69;20081;-70
2022/05/07 08:29:21;;;;;;;;;;;;;;;15.09;64.45;93080.19;2058987;69;20093;-71
2022/05/07 08:31:48;;;;;;;;;;;;;;;15.40;63.73;93082.44;2058639;69;20050;-71
2022/05/07 08:34:13;;;;;;;;;;;;;;;15.28;63.87;93081.81;2058735;69;20160;-71
2022/05/07 08:36:38;;;;;;;;;;;;;;;15.60;62.28;93077.75;2071915;69;20561;-72
2022/05/07 08:39:04;;;;;;;;;;;;;;;15.31;61.44;93078.47;2059127;69;20053;-73
2022/05/07 08:41:29;;;;;;;;;;;;;;;15.82;60.21;93080.94;2059055;69;20074;-71
2022/05/07 08:43:55;;;;;;;;;;;;;;;15.23;61.45;93083.72;2058972;69;20521;-75
2022/05/07 08:46:20;;;;;;;;;;;;;;;15.20;61.58;93087.81;2071919;69;20056;-76
2022/05/07 08:48:47;;;;;;;;;;;;;;;15.18;60.79;93082.06;2058807;69;20191;-76
2022/05/07 08:51:16;;;;;;;;;;;;;;;15.77;60.12;93087.06;2058866;69;20455;-71
2022/05/07 08:53:43;;;;;;;;;;;;;;;15.53;58.99;93081.63;2058876;69;20141;-73
2022/05/07 08:56:08;;;;;;;;;;;;;;;15.29;59.52;93086.13;2058804;69;20046;-72
2022/05/07 08:58:34;;;;;;;;;;;;;;;15.03;59.74;93091.97;2071637;69;20053;-72
2022/05/07 09:01:00;;;;;;;;;;;;;;;14.69;61.61;93088.09;2058878;69;20050;-73
2022/05/07 09:03:36;;;;;;;;;;;;;;;14.71;62.14;93088.94;2058771;69;20579;-73
2022/05/07 09:06:01;;;;;;;;;;;;;;;14.88;62.05;93084.81;2058878;69;20137;-74
2022/05/07 09:08:27;;;;;;;;;;;;;;;15.48;59.97;93083.53;2058839;69;20202;-71
2022/05/07 09:10:54;;;;;;;;;;;;;;;15.65;60.38;93084.38;2058914;69;20489;-73
2022/05/07 09:13:19;;;;;;;;;;;;;;;15.26;62.01;93079.63;2058839;69;20053;-77
2022/05/07 09:15:48;;;;;;;;;;;;;;;15.49;61.02;93084.31;2058482;69;20069;-73
2022/05/07 09:18:14;;;;;;;;;;;;;;;15.27;62.41;93081.09;2058656;69;20053;-71
2022/05/07 09:20:40;;;;;;;;;;;;;;;14.65;64.04;93091.44;2058803;69;20046;-72
2022/05/07 09:23:06;;;;;;;;;;;;;;;14.57;64.58;93079.72;2058780;69;20078;-74
2022/05/07 09:25:32;;;;;;;;;;;;;;;14.81;63.66;93077.38;2058838;69;20054;-73
2022/05/07 09:27:57;;;;;;;;;;;;;;;15.03;63.55;93077.03;2058849;69;20054;-75
2022/05/07 09:30:24;;;;;;;;;;;;;;;14.81;63.66;93073.81;2058750;69;20485;-71
2022/05/07 09:36:19;;;;;;;;;;;;;;;15.07;62.94;93080.81;2058797;69;20404;-71
2022/05/07 09:42:21;;;;;;;;;;;;;;;14.62;65.59;93077.81;2058836;69;20080;-75
2022/05/07 09:44:47;;;;;;;;;;;;;;;14.16;67.56;93074.69;2058859;69;20082;-73
2022/05/07 09:47:13;;;;;;;;;;;;;;;14.64;65.88;93070.16;2058732;69;20479;-70
2022/05/07 09:50:20;;;;;;;;;;;;;;;14.17;67.63;93078.28;2058977;69;20050;-71
2022/05/07 09:52:27;;;;;;;;;;;;;;;14.42;67.00;93066.84;2059227;69;20115;-71
2022/05/07 09:57:38;;;;;;;;;;;;;;;14.59;68.79;93067.75;2059044;69;20175;-71
2022/05/07 10:00:07;;;;;;;;;;;;;;;14.65;68.11;93065.22;2059206;69;20137;-71
2022/05/07 10:03:03;;;;;;;;;;;;;;;14.81;68.14;93062.47;2059172;69;20381;-71
2022/05/07 10:08:57;;;;;;;;;;;;;;;15.12;66.52;93059.06;2059264;69;20640;-74
2022/05/07 10:11:23;;;;;;;;;;;;;;;15.27;65.59;93058.41;2059212;69;20054;-71
2022/05/07 10:13:55;;;;;;;;;;;;;;;15.12;65.97;93067.56;2072319;69;20094;-72
2022/05/07 10:16:21;;;;;;;;;;;;;;;15.49;65.26;93055.94;2071903;69;20050;-71
2022/05/07 10:18:47;;;;;;;;;;;;;;;15.45;64.98;93053.63;2059072;69;20054;-71
2022/05/07 10:21:22;;;;;;;;;;;;;;;15.42;64.57;93057.72;2059218;69;20084;-76
2022/05/07 10:23:55;;;;;;;;;;;;;;;15.38;63.54;93056.78;2059292;69;20065;-76
2022/05/07 10:26:22;;;;;;;;;;;;;;;16.01;62.16;93045.63;2059098;69;20050;-75
2022/05/07 10:28:48;;;;;;;;;;;;;;;16.00;61.90;93041.31;2059328;69;20046;-73
2022/05/07 10:31:18;;;;;;;;;;;;;;;15.79;61.68;93038.91;2072205;69;20046;-74
2022/05/07 10:33:43;;;;;;;;;;;;;;;15.61;62.41;93041.56;2059089;69;20042;-74
2022/05/07 10:36:10;;;;;;;;;;;;;;;15.31;63.61;93032.34;2059240;69;20470;-76
2022/05/07 10:38:37;;;;;;;;;;;;;;;15.43;63.20;93036.50;2059153;69;20054;-74
2022/05/07 10:41:12;;;;;;;;;;;;;;;15.53;62.43;93036.25;2072220;69;20522;-74
2022/05/07 10:43:38;;;;;;;;;;;;;;;15.86;61.34;93032.16;2059164;69;20160;-74
2022/05/07 10:46:08;;;;;;;;;;;;;;;16.12;60.01;93029.75;2058770;69;20115;-70
2022/05/07 10:48:42;;;;;;;;;;;;;;;15.87;60.93;93031.50;2059012;69;20115;-72
2022/05/07 10:51:15;;;;;;;;;;;;;;;16.59;59.53;93034.72;2072170;69;20590;-70
2022/05/07 10:53:41;;;;;;;;;;;;;;;16.93;58.03;93032.63;2059290;69;20521;-71
2022/05/07 10:56:17;;;;;;;;;;;;;;;16.85;57.97;93026.59;2059092;69;20077;-72
2022/05/07 10:58:46;;;;;;;;;;;;;;;16.53;58.30;93027.34;2072199;69;20056;-74
2022/05/07 11:01:12;;;;;;;;;;;;;;;16.57;58.68;93026.09;2059110;69;20061;-70
2022/05/07 11:03:38;;;;;;;;;;;;;;;16.23;59.22;93017.50;2059085;69;20057;-72
2022/05/07 11:06:04;;;;;;;;;;;;;;;16.11;59.67;93002.75;2059047;69;20043;-72
2022/05/07 11:08:30;;;;;;;;;;;;;;;16.13;59.63;93011.38;2058922;69;20050;-73
2022/05/07 11:11:07;;;;;;;;;;;;;;;16.10;59.37;93010.53;2059089;69;20070;-72
2022/05/07 11:13:37;;;;;;;;;;;;;;;16.34;58.88;93013.00;2071462;69;20077;-73
2022/05/07 11:16:03;;;;;;;;;;;;;;;16.36;58.11;93015.94;2058938;69;20099;-73
2022/05/07 11:18:32;;;;;;;;;;;;;;;16.06;58.37;93004.66;2058884;69;20137;-74
2022/05/07 11:21:03;;;;;;;;;;;;;;;16.53;58.11;93009.59;2058950;69;20123;-73
2022/05/07 11:23:31;;;;;;;;;;;;;;;16.42;57.59;93014.09;2058934;69;20053;-75
2022/05/07 11:25:56;;;;;;;;;;;;;;;16.05;57.39;93013.84;2071971;69;20108;-76
2022/05/07 11:28:22;;;;;;;;;;;;;;;16.38;57.25;93004.66;2058963;69;20421;-74
2022/05/07 11:30:53;;;;;;;;;;;;;;;16.47;56.67;93010.06;2058989;69;20050;-74
2022/05/07 11:33:26;;;;;;;;;;;;;;;16.14;56.92;93010.00;2058928;69;20054;-77
2022/05/07 11:36:08;;;;;;;;;;;;;;;16.10;57.07;93007.69;2058904;69;20509;-73
2022/05/07 11:38:34;;;;;;;;;;;;;;;16.12;57.12;93007.78;2072082;69;20127;-76
2022/05/07 11:41:11;;;;;;;;;;;;;;;15.92;55.92;93010.44;2072020;69;20127;-76
2022/05/07 11:46:20;;;;;;;;;;;;;;;16.73;55.00;93004.09;2071829;69;20666;-75
2022/05/07 11:48:46;;;;;;;;;;;;;;;17.00;54.28;93000.97;2058720;69;20058;-77
2022/05/07 11:51:11;;;;;;;;;;;;;;;17.37;53.73;92996.06;2058931;69;20073;-73
2022/05/07 11:53:37;;;;;;;;;;;;;;;17.23;53.04;92993.38;2058859;69;20126;-73
2022/05/07 11:56:06;;;;;;;;;;;;;;;17.10;52.70;92989.28;2058861;69;20058;-73
2022/05/07 11:58:46;;;;;;;;;;;;;;;17.47;52.50;92982.22;2059064;69;20050;-73
2022/05/07 12:01:22;;;;;;;;;;;;;;;17.70;52.42;92978.16;2071995;69;20057;-73
2022/05/07 12:03:48;;;;;;;;;;;;;;;18.05;52.33;92974.50;2058796;69;20119;-73
2022/05/07 12:06:27;;;;;;;;;;;;;;;17.58;50.70;92975.53;2058838;69;20138;-74
2022/05/07 12:08:53;;;;;;;;;;;;;;;17.41;51.82;92977.03;2058543;69;20050;-73
2022/05/07 12:11:20;;;;;;;;;;;;;;;16.70;52.74;92976.91;2071817;69;20502;-74
2022/05/07 12:13:46;;;;;;;;;;;;;;;16.81;52.33;92973.13;2058911;69;20107;-72
2022/05/07 12:18:56;;;;;;;;;;;;;;;16.42;52.71;92968.63;2058886;69;20073;-71
2022/05/07 12:29:49;;;;;;;;;;;;;;;16.84;51.62;92966.16;2058854;69;20149;-72
2022/05/07 12:32:14;;;;;;;;;;;;;;;17.05;52.14;92973.44;2058767;69;20054;-72
2022/05/07 12:34:40;;;;;;;;;;;;;;;16.81;50.08;92972.41;2058747;69;20050;-71
2022/05/07 12:37:05;;;;;;;;;;;;;;;16.82;49.76;92968.22;2071593;69;20069;-75
2022/05/07 12:43:00;;;;;;;;;;;;;;;17.00;50.58;92961.16;2058979;69;20057;-71
2022/05/07 12:45:28;;;;;;;;;;;;;;;17.08;49.25;92971.41;2058720;69;20119;-70
2022/05/07 12:47:53;;;;;;;;;;;;;;;17.11;50.18;92970.84;2058554;69;20062;-72
2022/05/07 12:50:19;;;;;;;;;;;;;;;16.76;50.35;92966.56;2058802;69;20591;-72
2022/05/07 12:52:45;;;;;;;;;;;;;;;16.86;51.19;92968.34;2058780;69;20478;-73
2022/05/07 12:55:10;;;;;;;;;;;;;;;17.17;49.60;92958.97;2058723;69;20543;-72
2022/05/07 12:57:35;;;;;;;;;;;;;;;17.03;49.86;92961.97;2058883;69;20072;-73
2022/05/07 13:00:01;;;;;;;;;;;;;;;16.94;50.46;92955.22;2058643;69;20050;-72
2022/05/07 13:02:26;;;;;;;;;;;;;;;16.86;51.22;92954.13;2058944;69;20101;-70
2022/05/07 13:04:52;;;;;;;;;;;;;;;17.32;49.58;92946.03;2071839;69;20054;-69
2022/05/07 13:07:22;;;;;;;;;;;;;;;17.13;49.68;92944.56;2058629;69;20078;-70
2022/05/07 13:09:47;;;;;;;;;;;;;;;17.50;50.39;92946.75;2071782;69;20151;-71
2022/05/07 13:12:13;;;;;;;;;;;;;;;17.30;50.81;92940.28;2058714;69;20149;-71
2022/05/07 13:14:39;;;;;;;;;;;;;;;17.15;50.81;92945.41;2071677;69;20077;-71
2022/05/07 13:17:05;;;;;;;;;;;;;;;17.27;50.94;92948.00;2058712;69;20050;-70
2022/05/07 13:19:31;;;;;;;;;;;;;;;17.52;49.40;92944.00;2058614;69;20054;-71
2022/05/07 13:21:56;;;;;;;;;;;;;;;17.64;49.31;92946.56;2058662;69;20074;-73
2022/05/07 13:24:22;;;;;;;;;;;;;;;17.06;50.09;92945.72;2072186;69;20050;-73
2022/05/07 13:26:47;;;;;;;;;;;;;;;17.48;50.15;92946.69;2059110;69;20060;-71
2022/05/07 13:29:14;;;;;;;;;;;;;;;17.41;50.43;92954.25;2059237;69;20187;-70
2022/05/07 13:35:09;;;;;;;;;;;;;;;17.03;52.58;92939.22;2058836;69;20417;-70
2022/05/07 13:37:35;;;;;;;;;;;;;;;16.98;53.57;92946.84;2059148;69;20481;-72
2022/05/07 13:40:01;;;;;;;;;;;;;;;17.34;53.57;92949.72;2059145;69;20046;-70
2022/05/07 13:42:26;;;;;;;;;;;;;;;17.17;54.61;92947.59;2059140;69;20081;-73
2022/05/07 13:44:52;;;;;;;;;;;;;;;16.75;54.57;92944.47;2059196;69;20078;-72
2022/05/07 13:47:17;;;;;;;;;;;;;;;16.91;54.78;92950.84;2059164;69;20476;-74
2022/05/07 13:49:43;;;;;;;;;;;;;;;17.38;53.97;92955.56;2059084;69;20039;-72
2022/05/07 13:52:08;;;;;;;;;;;;;;;17.03;54.02;92944.91;2059122;69;20050;-72
2022/05/07 13:54:35;;;;;;;;;;;;;;;16.44;54.86;92951.66;2059183;69;20514;-70
2022/05/07 13:57:00;;;;;;;;;;;;;;;16.68;53.82;92939.88;2059169;69;20133;-70
2022/05/07 13:59:28;;;;;;;;;;;;;;;16.86;53.31;92943.53;2059210;69;20062;-69
2022/05/07 14:01:54;;;;;;;;;;;;;;;16.56;53.63;92945.78;2072124;69;20046;-70
2022/05/07 14:04:20;;;;;;;;;;;;;;;16.67;52.96;92935.56;2059070;69;20119;-69
2022/05/07 14:06:46;;;;;;;;;;;;;;;16.56;53.42;92937.25;2059171;69;20079;-68
2022/05/07 14:09:12;;;;;;;;;;;;;;;16.54;54.16;92931.50;2059097;69;20400;-67
2022/05/07 14:11:38;;;;;;;;;;;;;;;16.33;54.97;92937.69;2058811;69;20050;-70